Time;durP1;ratioP1;P1;durP2;ratioP2;P2;SDS_P1;SDS_P2;PMS_P1;PMS_P2;Temp;Humidity;BMP_temperature;BMP_pressure;BME280_temperature;BME280_humidity;BME280_pressure;Samples;Min_cycle;Max_cycle;Signal;HPM_P1;HPM_P2
2023/03/16 07:01:23;;;;;;;5.45;4.93;;;;;;;-145.79;67.48;78553.84;5321741;27;20748;-73
2023/03/16 07:03:57;;;;;;;6.97;4.80;;;;;;;-145.79;67.01;78560.19;5314391;28;20032;-74
2023/03/16 07:06:29;;;;;;;5.82;4.22;;;;;;;-145.79;66.76;78549.59;5321235;28;20028;-74
2023/03/16 07:09:00;;;;;;;8.90;5.93;;;;;;;-145.79;66.75;78547.47;5315746;28;20379;-74
2023/03/16 07:11:31;;;;;;;13.02;5.10;;;;;;;-145.79;66.88;78541.13;5318638;28;20032;-73
2023/03/16 07:14:03;;;;;;;6.20;4.05;;;;;;;-145.79;66.11;78541.13;5310579;28;20174;-73
2023/03/16 07:16:35;;;;;;;9.90;4.60;;;;;;;-145.79;66.31;78522.03;5306594;28;20020;-73
2023/03/16 07:19:06;;;;;;;5.03;3.88;;;;;;;-145.79;65.56;78526.28;5322074;28;20020;-74
2023/03/16 07:21:40;;;;;;;9.18;5.22;;;;;;;-145.79;66.04;78517.81;5321946;28;20026;-74
2023/03/16 07:24:12;;;;;;;7.80;4.03;;;;;;;-145.79;65.77;78511.44;5319830;28;20028;-74
2023/03/16 07:26:43;;;;;;;5.72;4.38;;;;;;;-145.79;65.13;78511.44;5321999;28;20016;-73
2023/03/16 07:29:15;;;;;;;5.95;4.07;;;;;;;-145.79;64.42;78502.97;5320955;28;20036;-74
2023/03/16 07:31:47;;;;;;;6.60;4.20;;;;;;;-145.79;64.98;78505.06;5306159;28;20024;-74
2023/03/16 07:34:19;;;;;;;8.02;4.35;;;;;;;-145.79;64.89;78496.59;5300384;28;20050;-73
2023/03/16 07:36:52;;;;;;;7.18;3.80;;;;;;;-145.79;65.04;78498.72;5299969;28;20525;-74
2023/03/16 07:39:24;;;;;;;6.72;4.18;;;;;;;-145.79;64.64;78500.84;5312853;28;20036;-74
2023/03/16 07:41:55;;;;;;;4.82;3.40;;;;;;;-145.79;64.10;78496.59;5314665;28;20016;-73
2023/03/16 07:44:27;;;;;;;6.68;4.90;;;;;;;-145.79;64.56;78494.47;5320584;28;20455;-74
2023/03/16 07:46:58;;;;;;;7.13;3.88;;;;;;;-145.79;63.91;78483.88;5321105;28;20015;-74
2023/03/16 07:49:30;;;;;;;8.98;3.95;;;;;;;-145.79;64.00;78471.16;5299517;28;20127;-73
2023/03/16 07:52:02;;;;;;;7.68;3.90;;;;;;;-145.79;63.34;78479.63;5299880;28;20024;-68
2023/03/16 07:54:33;;;;;;;6.18;4.28;;;;;;;-145.79;62.64;78471.16;5300107;28;20515;-67
2023/03/16 07:57:05;;;;;;;10.18;4.63;;;;;;;-145.79;62.73;78464.78;5299918;28;20153;-69
2023/03/16 07:59:37;;;;;;;6.78;4.40;;;;;;;-145.79;63.17;78462.66;5310083;28;20040;-68
2023/03/16 08:02:13;;;;;;;9.65;6.18;;;;;;;-145.79;62.52;78456.31;5321158;28;20049;-68
2023/03/16 08:04:45;;;;;;;8.82;5.00;;;;;;;-145.79;63.09;78447.84;5312875;28;20082;-68
2023/03/16 08:07:16;;;;;;;6.90;3.60;;;;;;;-145.79;62.58;78447.84;5300137;28;20464;-68
2023/03/16 08:09:51;;;;;;;5.93;4.03;;;;;;;-145.79;63.97;78435.09;5299979;28;20029;-68
2023/03/16 08:12:23;;;;;;;6.22;3.92;;;;;;;-145.79;62.31;78437.22;5287260;28;20115;-68
2023/03/16 08:14:54;;;;;;;8.65;4.15;;;;;;;-145.79;61.64;78439.34;5288125;28;20214;-68
2023/03/16 08:17:25;;;;;;;5.72;3.42;;;;;;;-145.79;64.49;78403.31;5306701;28;20110;-68
2023/03/16 08:19:57;;;;;;;5.40;3.53;;;;;;;-145.79;61.22;78422.38;5305991;28;20483;-68
2023/03/16 08:22:29;;;;;;;8.50;4.85;;;;;;;-145.79;60.85;78433.00;5293252;28;20024;-69
2023/03/16 08:25:02;;;;;;;7.82;3.88;;;;;;;-145.79;60.87;78418.16;5285334;28;20024;-68
2023/03/16 08:27:33;;;;;;;8.35;4.95;;;;;;;-145.79;61.55;78407.53;5285531;28;20028;-68
2023/03/16 08:30:10;;;;;;;7.22;4.10;;;;;;;-145.79;61.48;78377.88;5290449;28;20035;-68
2023/03/16 08:32:41;;;;;;;5.43;4.22;;;;;;;-145.79;61.07;78371.50;5300023;28;20031;-69
2023/03/16 08:35:15;;;;;;;4.95;3.75;;;;;;;-145.79;59.48;78373.63;5285241;28;20119;-68
2023/03/16 08:37:48;;;;;;;7.25;3.80;;;;;;;-145.79;59.27;78382.09;5300894;28;20364;-65
2023/03/16 08:40:23;;;;;;;8.40;4.05;;;;;;;-145.79;58.90;78375.75;5284927;28;20123;-68
2023/03/16 08:42:55;;;;;;;7.13;4.35;;;;;;;-145.79;59.30;78369.38;5285516;28;20025;-66
2023/03/16 08:45:27;;;;;;;6.20;3.78;;;;;;;-145.79;57.74;78373.63;5294539;28;20532;-66
2023/03/16 08:47:59;;;;;;;6.07;4.32;;;;;;;-145.79;57.93;78377.88;5305790;28;20035;-66
2023/03/16 08:50:30;;;;;;;6.03;3.60;;;;;;;-145.79;57.77;78369.38;5306171;28;20024;-65
2023/03/16 08:53:01;;;;;;;7.80;4.20;;;;;;;-145.79;58.06;78356.66;5305412;28;20142;-65
2023/03/16 08:55:32;;;;;;;5.22;3.88;;;;;;;-145.79;57.85;78354.53;5295666;28;20058;-65
2023/03/16 08:58:04;;;;;;;6.43;4.05;;;;;;;-145.79;57.08;78356.66;5294978;28;20468;-65
2023/03/16 09:00:39;;;;;;;8.53;4.23;;;;;;;-145.79;57.55;78341.81;5299501;28;20420;-64
2023/03/16 09:03:10;;;;;;;29.00;22.00;;;;;;;-145.79;57.63;78335.47;5302894;28;20024;-64
2023/03/16 09:05:41;;;;;;;41.80;30.88;;;;;;;-145.79;57.09;78326.97;5284744;28;20017;-64
2023/03/16 09:08:12;;;;;;;6.78;4.30;;;;;;;-145.79;56.69;78314.25;5283938;28;20036;-65
2023/03/16 09:10:45;;;;;;;8.88;3.88;;;;;;;-145.79;56.40;78301.53;5284655;28;20133;-65
2023/03/16 09:13:18;;;;;;;6.10;3.40;;;;;;;-145.79;56.46;78299.41;5285337;28;20025;-64
2023/03/16 09:15:49;;;;;;;6.78;3.75;;;;;;;-145.79;55.80;78299.41;5291031;28;20023;-65
2023/03/16 09:18:22;;;;;;;6.47;3.85;;;;;;;-145.79;55.49;78293.06;5305559;28;20119;-66
2023/03/16 09:20:58;;;;;;;5.40;3.70;;;;;;;-145.79;54.90;78288.81;5304118;28;20040;-65
2023/03/16 09:23:30;;;;;;;4.88;3.60;;;;;;;-145.79;54.50;78286.69;5304426;28;20022;-66
2023/03/16 09:26:06;;;;;;;6.28;3.25;;;;;;;-145.79;54.24;78273.97;5305132;28;20035;-64
2023/03/16 09:28:40;;;;;;;6.47;3.78;;;;;;;-145.79;54.27;78269.75;5304467;28;20031;-65
2023/03/16 09:31:16;;;;;;;7.75;3.35;;;;;;;-145.79;54.38;78252.78;5289685;28;20039;-65
2023/03/16 09:33:47;;;;;;;6.35;3.17;;;;;;;-145.79;54.08;78235.81;5294126;28;20114;-65
2023/03/16 09:36:19;;;;;;;4.45;3.35;;;;;;;-145.79;53.81;78233.69;5299969;28;20107;-65
2023/03/16 09:38:50;;;;;;;4.45;3.47;;;;;;;-145.79;52.46;78237.94;5290825;28;20052;-65
2023/03/16 09:41:43;;;;;;;6.47;3.50;;;;;;;-145.79;53.25;78229.47;5285192;28;20033;-64
2023/03/16 09:44:36;;;;;;;8.00;3.85;;;;;;;-145.79;52.87;78231.56;5303939;28;20063;-65
2023/03/16 09:47:10;;;;;;;7.07;2.95;;;;;;;-145.79;52.97;78225.22;5294676;28;20443;-65
2023/03/16 09:49:47;;;;;;;8.05;3.45;;;;;;;-145.79;51.52;78201.91;5282947;28;20082;-65
2023/03/16 09:52:32;;;;;;;5.13;3.22;;;;;;;-145.79;51.38;78182.81;5295914;28;20040;-65
2023/03/16 09:55:32;;;;;;;3.75;2.63;;;;;;;-145.79;51.22;78161.63;5283541;28;20048;-65
2023/03/16 09:58:12;;;;;;;6.07;3.50;;;;;;;-145.79;51.32;78157.38;5296862;28;20495;-65
2023/03/16 10:01:01;;;;;;;5.95;3.08;;;;;;;-145.79;51.35;78123.44;5292197;28;20076;-65
2023/03/16 10:03:51;;;;;;;3.67;3.15;;;;;;;-145.79;50.71;78108.63;5301112;28;20077;-65
2023/03/16 10:06:23;;;;;;;5.07;3.20;;;;;;;-145.79;50.97;78093.78;5304944;28;20028;-65
2023/03/16 10:09:11;;;;;;;6.15;3.20;;;;;;;-145.79;50.13;78091.66;5304413;28;20099;-66
2023/03/16 10:11:48;;;;;;;5.15;3.03;;;;;;;-145.79;49.45;78083.19;5282503;28;20027;-65
2023/03/16 10:14:31;;;;;;;9.15;2.97;;;;;;;-145.79;49.98;78076.81;5283012;28;20035;-65
2023/03/16 10:17:15;;;;;;;8.52;4.68;;;;;;;-145.79;49.30;78072.56;5293990;28;20085;-65
2023/03/16 10:20:08;;;;;;;5.20;2.67;;;;;;;-145.79;48.97;78057.72;5304108;28;20089;-67
2023/03/16 10:22:44;;;;;;;4.50;2.50;;;;;;;-145.79;48.72;78047.13;5283449;28;20076;-65
2023/03/16 10:25:24;;;;;;;;;;;;;;;-145.79;49.31;78038.66;5282652;28;20024;-65
2023/03/16 10:27:56;;;;;;;3.80;2.60;;;;;;;-145.79;48.49;78042.91;5283047;28;19912;-65
2023/03/16 10:30:33;;;;;;;5.13;2.60;;;;;;;-145.79;48.43;78034.41;5302999;28;20524;-66
2023/03/16 10:33:16;;;;;;;6.13;2.55;;;;;;;-145.79;48.08;78030.19;5302924;28;20027;-66
2023/03/16 10:36:10;;;;;;;4.13;2.60;;;;;;;-145.79;49.01;78015.34;5303914;28;20033;-65
2023/03/16 10:38:45;;;;;;;6.88;3.67;;;;;;;-145.79;48.73;78011.09;5301437;28;20107;-66
2023/03/16 10:41:20;;;;;;;6.20;2.63;;;;;;;-145.79;48.35;78004.72;5304014;28;20082;-66
2023/03/16 10:44:08;;;;;;;6.03;3.30;;;;;;;-145.79;48.20;77996.25;5295282;28;20047;-66
2023/03/16 10:46:40;;;;;;;5.72;2.70;;;;;;;-145.79;47.54;77983.53;5284546;28;20032;-66
2023/03/16 10:49:26;;;;;;;5.90;2.88;;;;;;;-145.79;47.87;77966.56;5280993;28;20376;-66
2023/03/16 10:52:11;;;;;;;9.32;2.70;;;;;;;-145.79;47.83;77958.09;5282789;28;20020;-66
2023/03/16 10:54:58;;;;;;;8.02;2.80;;;;;;;-145.79;47.77;77941.13;5287298;28;20312;-66
2023/03/16 10:57:44;;;;;;;4.35;2.70;;;;;;;-145.79;47.90;77930.53;5303970;28;20085;-66
2023/03/16 11:00:21;;;;;;;3.72;2.22;;;;;;;-145.79;47.40;77919.94;5302870;28;20070;-67
2023/03/16 11:02:54;;;;;;;5.35;2.90;;;;;;;-145.79;47.38;77913.56;5304083;28;20028;-67
2023/03/16 11:05:29;;;;;;;5.40;3.30;;;;;;;-145.79;45.94;77915.69;5302575;28;20102;-66
2023/03/16 11:08:12;;;;;;;6.07;2.70;;;;;;;-145.79;45.84;77915.69;5288039;28;20035;-66
2023/03/16 11:10:46;;;;;;;5.68;2.58;;;;;;;-145.79;46.71;77892.38;5293718;28;20024;-66
2023/03/16 11:13:19;;;;;;;5.88;2.70;;;;;;;-145.79;45.91;77879.66;5302561;28;20115;-66
2023/03/16 11:16:20;;;;;;;3.13;2.28;;;;;;;-145.79;45.89;77864.81;5302641;28;20073;-66
2023/03/16 11:18:56;;;;;;;4.53;2.17;;;;;;;-145.79;44.96;77860.56;5303842;28;20487;-66
2023/03/16 11:21:45;;;;;;;5.85;2.30;;;;;;;-145.79;45.20;77843.63;5302763;28;20074;-66
2023/03/16 11:24:32;;;;;;;6.20;2.88;;;;;;;-145.79;45.27;77833.03;5287003;28;20059;-66
2023/03/16 11:27:07;;;;;;;8.73;2.60;;;;;;;-145.79;45.48;77820.31;5282579;28;20467;-67
2023/03/16 11:29:58;;;;;;;;;;;;;;;-145.79;44.80;77807.59;5296664;28;20035;-66
2023/03/16 11:32:36;;;;;;;4.25;2.97;;;;;;;-145.79;45.64;77809.69;5303472;28;20363;-66
2023/03/16 11:35:18;;;;;;;3.85;2.70;;;;;;;-145.79;45.37;77792.75;5302767;28;20126;-67
2023/03/16 11:38:04;;;;;;;4.75;2.20;;;;;;;-145.79;43.50;77796.97;5298323;28;20120;-66
2023/03/16 11:40:39;;;;;;;;;;;;;;;-145.79;44.06;77775.78;5303227;28;20109;-66
2023/03/16 11:43:44;;;;;;;33.57;25.33;;;;;;;-145.79;44.15;77763.06;5302385;28;20078;-68
2023/03/16 11:46:30;;;;;;;7.93;4.93;;;;;;;-145.79;44.04;77756.72;5292234;28;20031;-67
2023/03/16 11:49:07;;;;;;;4.95;2.83;;;;;;;-145.79;43.57;77756.72;5288874;28;20034;-66
2023/03/16 11:51:52;;;;;;;5.72;2.60;;;;;;;-145.79;43.76;77746.09;5286292;28;20027;-66
2023/03/16 11:54:41;;;;;;;4.20;2.50;;;;;;;-145.79;43.74;77746.09;5289479;28;20035;-68
2023/03/16 11:57:37;;;;;;;3.72;1.83;;;;;;;-145.79;43.95;77737.63;5299774;28;20055;-66
2023/03/16 12:00:34;;;;;;;2.97;1.80;;;;;;;-145.79;43.20;77727.03;5306630;28;20060;-66
2023/03/16 12:03:35;;;;;;;3.90;2.30;;;;;;;-145.79;42.63;77729.16;5296032;28;20032;-66
2023/03/16 12:06:29;;;;;;;5.35;1.73;;;;;;;-145.79;42.77;77718.56;5286821;28;20040;-66
2023/03/16 12:09:09;;;;;;;2.30;1.98;;;;;;;-145.79;43.44;77712.19;5286938;28;20482;-66
2023/03/16 12:11:52;;;;;;;7.15;3.10;;;;;;;-145.79;42.65;77712.19;5304497;28;20036;-66
2023/03/16 12:14:45;;;;;;;2.67;1.85;;;;;;;-145.79;42.69;77705.84;5306639;28;20115;-66
2023/03/16 12:17:22;;;;;;;3.58;1.90;;;;;;;-145.79;42.81;77691.00;5305690;28;20041;-66
2023/03/16 12:20:11;;;;;;;3.88;1.85;;;;;;;-145.79;42.65;77674.03;5297653;28;20135;-66
2023/03/16 12:23:04;;;;;;;3.55;2.65;;;;;;;-145.79;42.41;77642.25;5306507;28;20040;-65
2023/03/16 12:25:39;;;;;;;2.28;2.08;;;;;;;-145.79;42.12;77625.28;5304719;28;20082;-66
2023/03/16 12:28:24;;;;;;;3.15;1.92;;;;;;;-145.79;41.78;77623.16;5298182;28;20124;-65
2023/03/16 12:31:14;;;;;;;4.55;2.50;;;;;;;-145.79;41.87;77599.84;5283389;28;20104;-65
2023/03/16 12:34:02;;;;;;;3.58;2.00;;;;;;;-145.79;42.04;77568.03;5290547;28;20034;-66
2023/03/16 12:37:13;;;;;;;6.63;2.20;;;;;;;-145.79;41.54;77544.72;5304264;28;20028;-65
2023/03/16 12:39:50;;;;;;;2.22;1.90;;;;;;;-145.79;41.52;77517.16;5299600;28;20027;-66
2023/03/16 12:42:30;;;;;;;2.58;2.00;;;;;;;-145.79;41.09;77510.81;5305254;28;20441;-66
2023/03/16 12:45:07;;;;;;;5.00;2.33;;;;;;;-145.79;41.01;77504.47;5303971;28;20306;-66
2023/03/16 12:47:51;;;;;;;3.78;1.67;;;;;;;-145.79;40.87;77483.25;5305183;28;20024;-65
2023/03/16 12:50:23;;;;;;;5.93;2.30;;;;;;;-145.79;40.00;77470.53;5296227;28;20471;-65
2023/03/16 12:52:55;;;;;;;4.30;2.10;;;;;;;-145.79;40.05;77462.06;5295773;28;20134;-65
2023/03/16 12:55:33;;;;;;;3.25;1.75;;;;;;;-145.79;40.00;77453.59;5283964;28;20529;-66
2023/03/16 12:58:07;;;;;;;4.10;1.55;;;;;;;-145.79;40.23;77445.09;5283626;28;20496;-66
2023/03/16 13:00:41;;;;;;;5.05;2.38;;;;;;;-145.79;39.00;77436.63;5282490;28;20048;-66
2023/03/16 13:03:15;;;;;;;3.47;1.70;;;;;;;-145.79;39.39;77419.66;5293825;28;20040;-66
2023/03/16 13:05:53;;;;;;;2.77;1.60;;;;;;;-145.79;39.06;77413.31;5304424;28;20024;-66
2023/03/16 13:08:29;;;;;;;3.33;2.10;;;;;;;-145.79;39.15;77402.72;5302810;28;20020;-66
2023/03/16 13:11:13;;;;;;;5.03;2.10;;;;;;;-145.79;38.62;77402.72;5300395;28;20094;-65
2023/03/16 13:14:00;;;;;;;3.08;2.20;;;;;;;-145.79;38.28;77394.22;5301133;28;20105;-66
2023/03/16 13:16:35;;;;;;;2.65;1.65;;;;;;;-145.79;38.75;77385.75;5301888;28;20067;-65
2023/03/16 13:19:24;;;;;;;6.87;2.13;;;;;;;-145.79;39.55;77351.84;5304110;28;20123;-65
2023/03/16 13:22:18;;;;;;;3.80;2.42;;;;;;;-145.79;38.53;77326.41;5304221;28;20044;-65
2023/03/16 13:24:58;;;;;;;5.38;2.22;;;;;;;-145.79;38.30;77317.94;5301284;28;20028;-64
2023/03/16 13:27:33;;;;;;;3.95;1.90;;;;;;;-145.79;38.11;77313.69;5290120;28;20059;-66
2023/03/16 13:30:24;;;;;;;2.20;1.52;;;;;;;-145.79;38.05;77286.13;5291534;28;20089;-65
2023/03/16 13:33:19;;;;;;;5.65;1.70;;;;;;;-145.79;37.81;77296.72;5302371;28;20020;-66
2023/03/16 13:35:53;;;;;;;5.43;1.73;;;;;;;-145.79;37.26;77288.25;5293298;28;20044;-67
2023/03/16 13:38:27;;;;;;;3.90;1.60;;;;;;;-145.79;37.74;77275.53;5303900;28;20016;-66
2023/03/16 13:41:07;;;;;;;2.30;1.63;;;;;;;-145.79;37.52;77245.84;5299617;28;20153;-67
2023/03/16 13:43:42;;;;;;;3.70;1.60;;;;;;;-145.79;37.38;77237.38;5298191;28;20111;-66
2023/03/16 13:46:15;;;;;;;3.38;1.75;;;;;;;-145.79;37.32;77237.38;5284026;28;20030;-67
2023/03/16 13:48:49;;;;;;;3.78;1.98;;;;;;;-145.79;37.16;77245.84;5282506;28;20025;-66
2023/03/16 13:51:21;;;;;;;4.13;1.80;;;;;;;-145.79;37.29;77226.78;5282716;28;20055;-66
2023/03/16 13:53:52;;;;;;;3.17;1.50;;;;;;;-145.79;37.07;77220.44;5282718;28;20016;-66
2023/03/16 13:56:28;;;;;;;9.25;5.80;;;;;;;-145.79;36.43;77237.38;5281698;28;20051;-67
2023/03/16 13:59:00;;;;;;;11.25;10.02;;;;;;;-145.79;36.68;77224.66;5285940;28;20438;-67
2023/03/16 14:01:32;;;;;;;4.13;1.73;;;;;;;-145.79;36.99;77216.19;5298384;28;20036;-66
2023/03/16 14:04:12;;;;;;;3.75;1.80;;;;;;;-145.79;37.35;77207.72;5281107;28;20024;-66
2023/03/16 14:06:59;;;;;;;2.90;1.98;;;;;;;-145.79;37.63;77192.88;5301768;28;20117;-67
2023/03/16 14:09:33;;;;;;;3.60;1.60;;;;;;;-145.79;37.52;77192.88;5302878;28;20035;-67
2023/03/16 14:12:04;;;;;;;3.03;1.80;;;;;;;-145.79;37.04;77182.28;5303669;28;20012;-67
2023/03/16 14:14:38;;;;;;;2.45;2.00;;;;;;;-145.79;37.54;77169.56;5304447;28;20479;-67
2023/03/16 14:17:16;;;;;;;4.50;1.92;;;;;;;-145.79;37.34;77169.56;5303529;28;20024;-67
2023/03/16 14:19:50;;;;;;;2.90;1.50;;;;;;;-145.79;37.24;77152.59;5303245;28;20111;-66
2023/03/16 14:22:24;;;;;;;3.78;1.83;;;;;;;-145.79;37.03;77135.66;5299542;28;20058;-67
2023/03/16 14:24:59;;;;;;;4.45;2.63;;;;;;;-145.79;37.21;77125.03;5300943;28;20043;-66
2023/03/16 14:27:42;;;;;;;4.78;1.98;;;;;;;-145.79;36.51;77122.94;5287221;28;20036;-66
2023/03/16 14:30:23;;;;;;;29.40;25.30;;;;;;;-145.79;36.78;77105.97;5284273;28;20028;-66
2023/03/16 14:33:03;;;;;;;6.82;3.03;;;;;;;-145.79;36.40;77108.09;5291883;28;20024;-66
2023/03/16 14:35:53;;;;;;;7.80;2.25;;;;;;;-145.79;36.35;77093.25;5296102;28;20105;-66
2023/03/16 14:38:35;;;;;;;4.88;1.80;;;;;;;-145.79;35.84;77097.50;5300589;28;20085;-66
2023/03/16 14:41:26;;;;;;;3.75;1.70;;;;;;;-145.79;36.20;77093.25;5301504;28;20034;-66
2023/03/16 14:44:03;;;;;;;4.10;1.77;;;;;;;-145.79;35.98;77080.53;5301482;28;20067;-66
2023/03/16 14:46:41;;;;;;;3.38;1.52;;;;;;;-145.79;35.11;77093.25;5283491;28;20024;-66
2023/03/16 14:49:31;;;;;;;4.82;2.88;;;;;;;-145.79;35.31;77072.06;5282498;28;20025;-66
2023/03/16 14:52:26;;;;;;;4.70;1.98;;;;;;;-145.79;35.04;77078.41;5282835;28;20029;-66
2023/03/16 14:54:58;;;;;;;2.10;1.67;;;;;;;-145.79;35.09;77084.78;5300647;28;20043;-66
2023/03/16 14:57:30;;;;;;;5.50;1.70;;;;;;;-145.79;34.98;77084.78;5303556;28;20479;-66
2023/03/16 15:00:02;;;;;;;3.13;1.58;;;;;;;-145.79;34.58;77095.38;5299243;28;20036;-66
2023/03/16 15:02:34;;;;;;;2.15;1.45;;;;;;;-145.79;35.06;77080.53;5303408;28;20035;-66
2023/03/16 15:05:06;;;;;;;4.20;1.73;;;;;;;-145.79;34.69;77080.53;5298882;28;20098;-66
2023/03/16 15:07:44;;;;;;;3.63;1.77;;;;;;;-145.79;34.90;77080.53;5285794;28;20028;-66
2023/03/16 15:10:15;;;;;;;2.72;1.83;;;;;;;-145.79;34.89;77074.19;5288668;28;20093;-66
2023/03/16 15:12:52;;;;;;;4.45;2.58;;;;;;;-145.79;35.22;77072.06;5315564;28;20035;-66
2023/03/16 15:15:26;;;;;;;8.32;6.75;;;;;;;-145.79;35.02;77084.78;5303494;28;20046;-66
2023/03/16 15:17:58;;;;;;;31.70;28.27;;;;;;;-145.79;35.18;77080.53;5303288;28;20028;-65
2023/03/16 15:20:37;;;;;;;8.05;5.72;;;;;;;-145.79;35.17;77086.91;5302615;28;20032;-65
2023/03/16 15:23:15;;;;;;;1.98;1.40;;;;;;;-145.79;34.91;77101.72;5307530;28;20036;-65
2023/03/16 15:25:48;;;;;;;3.40;2.00;;;;;;;-145.79;34.97;77095.38;5287599;28;20454;-65
2023/03/16 15:28:22;;;;;;;3.00;1.88;;;;;;;-145.79;35.21;77093.25;5313571;28;20118;-65
2023/03/16 15:30:56;;;;;;;3.88;1.60;;;;;;;-145.79;34.88;77091.13;5306162;28;20047;-65
2023/03/16 15:33:31;;;;;;;2.10;1.30;;;;;;;-145.79;34.86;77105.97;5307155;28;20379;-64
2023/03/16 15:36:12;;;;;;;6.20;1.75;;;;;;;-145.79;35.37;77101.72;5306417;28;20027;-64
2023/03/16 15:38:46;;;;;;;3.33;1.45;;;;;;;-145.79;35.27;77099.63;5307242;28;20027;-64
2023/03/16 15:41:18;;;;;;;3.92;1.70;;;;;;;-145.79;35.28;77108.09;5306185;28;20506;-64
2023/03/16 15:43:51;;;;;;;4.78;1.80;;;;;;;-145.79;35.25;77114.44;5302992;28;20020;-65
2023/03/16 15:46:22;;;;;;;4.65;1.65;;;;;;;-145.79;35.42;77122.94;5307240;28;20443;-65
2023/03/16 15:48:54;;;;;;;4.55;1.55;;;;;;;-145.79;35.70;77127.16;5306346;28;20207;-66
2023/03/16 15:51:28;;;;;;;3.35;1.40;;;;;;;-145.79;35.73;77120.81;5298778;28;20080;-66
2023/03/16 15:54:07;;;;;;;3.88;1.83;;;;;;;-145.79;35.62;77103.84;5306698;28;20475;-65
2023/03/16 15:56:44;;;;;;;2.95;1.38;;;;;;;-145.79;35.90;77108.09;5302003;28;20097;-65
2023/03/16 15:59:16;;;;;;;2.80;1.50;;;;;;;-145.79;35.79;77105.97;5306465;28;20040;-67
2023/03/16 16:01:53;;;;;;;2.28;1.23;;;;;;;-145.79;35.81;77101.72;5305536;28;20469;-65
2023/03/16 16:04:24;;;;;;;4.25;1.27;;;;;;;-145.79;35.50;77112.31;5304655;28;20522;-66
2023/03/16 16:06:56;;;;;;;3.15;1.60;;;;;;;-145.79;35.44;77105.97;5305172;28;20148;-66
2023/03/16 16:09:28;;;;;;;5.75;1.45;;;;;;;-145.79;35.75;77112.31;5294047;28;20028;-66
2023/03/16 16:12:00;;;;;;;2.15;1.90;;;;;;;-145.79;35.98;77118.69;5306703;28;20102;-66
2023/03/16 16:14:33;;;;;;;3.03;1.80;;;;;;;-145.79;35.42;77131.41;5289500;28;20067;-66
2023/03/16 16:17:09;;;;;;;5.32;1.83;;;;;;;-145.79;35.56;77133.53;5293699;28;20600;-67
2023/03/16 16:19:41;;;;;;;2.92;1.65;;;;;;;-145.79;35.66;77150.47;5284959;28;20102;-68
2023/03/16 16:22:12;;;;;;;3.75;1.70;;;;;;;-145.79;36.30;77146.25;5285426;28;20048;-67
2023/03/16 16:24:44;;;;;;;3.97;1.88;;;;;;;-145.79;36.77;77152.59;5288186;28;20012;-67
2023/03/16 16:27:21;;;;;;;5.50;1.60;;;;;;;-145.79;36.26;77152.59;5296195;28;20051;-67
2023/03/16 16:29:56;;;;;;;19.63;17.58;;;;;;;-145.79;36.37;77148.34;5306195;28;20493;-67
2023/03/16 16:32:27;;;;;;;3.30;1.90;;;;;;;-145.79;35.71;77152.59;5285311;28;20024;-67
